Celje, Slovenia
Current Conditions -  °F | °C
As of 10:00 AM on Saturday 25 Oct 2014 (Local Time) from LJCE Reporting Station
Broken Clouds Broken Clouds  
Wind Chill: 46°   Ceiling: 2300
Heat Index: 48°   Visibility: 6mi
Dew Point: 45°   Wind: 5mph
Humidity: 87%   Direction: 70°ENE
Pressure: 30.24"   Gusts: NA
Location:  46.24°N, 15.27°E
Report Text: LJCE 250800Z 07004KT 9999 FEW015 BKN023 09/07 Q1024 RMK WHT
Loading
Personal Weather Stations






























Interactive Weather Map
Tropical Storm Tracking
New forecast layout! Learn more

10-Day Weather Forecast

Advertisements
Track Severe Weather on mobile